createdAt,value
2022-12-23T00:01:42.632Z,16.00
2022-12-23T00:04:11.867Z,9.98
2022-12-23T00:09:15.967Z,11.77
2022-12-23T00:12:13.100Z,14.20
2022-12-23T00:14:57.199Z,12.77
2022-12-23T00:17:26.727Z,16.98
2022-12-23T00:19:55.788Z,16.10
2022-12-23T00:22:45.836Z,15.85
2022-12-23T00:25:15.595Z,15.90
2022-12-23T00:28:01.198Z,16.10
2022-12-23T00:30:37.345Z,15.85
2022-12-23T00:33:06.865Z,16.92
2022-12-23T00:35:36.049Z,15.13
2022-12-23T00:38:05.267Z,16.15
2022-12-23T00:40:47.856Z,16.33
2022-12-23T00:43:17.124Z,18.65
2022-12-23T00:45:48.527Z,21.75
2022-12-23T00:48:30.740Z,21.77
2022-12-23T00:51:00.278Z,19.77
2022-12-23T00:53:29.782Z,20.55
2022-12-23T00:56:04.129Z,22.13
2022-12-23T00:58:35.186Z,22.40
2022-12-23T01:01:19.782Z,22.52
2022-12-23T01:04:01.837Z,21.40
2022-12-23T01:08:59.846Z,21.17
2022-12-23T01:11:29.071Z,22.25
2022-12-23T01:14:03.260Z,24.45
2022-12-23T01:16:34.451Z,20.60
2022-12-23T01:19:03.694Z,20.75
2022-12-23T01:21:32.903Z,24.63
2022-12-23T01:24:02.705Z,21.92
2022-12-23T01:26:31.901Z,23.70
2022-12-23T01:29:01.161Z,20.88
2022-12-23T01:31:30.762Z,21.23
2022-12-23T01:34:02.370Z,19.40
2022-12-23T01:36:31.682Z,22.00
2022-12-23T01:39:00.773Z,18.77
2022-12-23T01:41:50.711Z,22.58
2022-12-23T01:44:54.729Z,21.40
2022-12-23T01:47:39.589Z,18.65
2022-12-23T01:50:17.210Z,22.08
2022-12-23T01:52:51.557Z,23.15
2022-12-23T01:55:25.625Z,19.52
2022-12-23T01:57:58.499Z,19.77
2022-12-23T02:00:40.630Z,21.40
2022-12-23T02:06:19.950Z,25.02
2022-12-23T02:09:07.077Z,24.33
2022-12-23T02:11:54.262Z,27.60
2022-12-23T02:14:48.141Z,28.20
2022-12-23T02:17:27.577Z,24.45
2022-12-23T02:20:20.849Z,28.00
2022-12-23T02:23:30.761Z,25.10
2022-12-23T02:26:23.775Z,27.10
2022-12-23T02:29:12.419Z,27.98
2022-12-23T02:31:51.354Z,24.90
2022-12-23T02:34:25.442Z,32.53
2022-12-23T02:37:03.306Z,28.77
2022-12-23T02:39:39.771Z,31.45
2022-12-23T02:42:18.624Z,26.80
2022-12-23T02:45:01.178Z,25.75
2022-12-23T02:47:43.175Z,24.73
2022-12-23T02:50:17.914Z,24.15
2022-12-23T02:52:50.024Z,22.42
2022-12-23T02:55:29.777Z,21.90
2022-12-23T02:58:02.642Z,22.40
2022-12-23T03:00:33.536Z,24.75
2022-12-23T03:03:05.147Z,22.27
2022-12-23T03:05:38.644Z,29.73
2022-12-23T03:08:13.771Z,26.02
2022-12-23T03:10:57.305Z,25.80
2022-12-23T03:13:43.944Z,26.17
2022-12-23T03:16:21.680Z,28.40
2022-12-23T03:19:12.902Z,26.15
2022-12-23T03:21:48.930Z,25.65
2022-12-23T03:24:26.309Z,27.20
2022-12-23T03:27:03.175Z,23.77
2022-12-23T03:29:44.973Z,26.88
2022-12-23T03:32:16.317Z,25.63
2022-12-23T03:34:57.711Z,30.77
2022-12-23T03:37:30.123Z,30.70
2022-12-23T03:40:12.207Z,29.45
2022-12-23T03:42:44.545Z,30.70
2022-12-23T03:48:15.535Z,26.30
2022-12-23T03:50:48.164Z,28.42
2022-12-23T03:53:22.986Z,27.98
2022-12-23T03:56:07.690Z,25.80
2022-12-23T03:58:41.653Z,25.15
2022-12-23T04:01:20.215Z,28.08
2022-12-23T04:04:00.766Z,26.67
2022-12-23T04:06:44.253Z,26.92
2022-12-23T04:09:22.298Z,25.42
2022-12-23T04:11:57.241Z,26.70
2022-12-23T04:14:26.354Z,22.33
2022-12-23T04:17:01.609Z,21.20
2022-12-23T04:19:30.978Z,18.50
2022-12-23T04:22:02.047Z,19.38
2022-12-23T04:24:31.454Z,23.67
2022-12-23T04:27:00.527Z,21.63
2022-12-23T04:29:29.779Z,20.52
2022-12-23T04:31:59.013Z,22.45
2022-12-23T04:34:28.230Z,22.67
2022-12-23T04:36:57.323Z,23.65
2022-12-23T04:39:28.680Z,22.70
2022-12-23T04:42:03.017Z,20.75
2022-12-23T04:44:32.105Z,21.33
2022-12-23T04:47:01.839Z,19.80
2022-12-23T04:49:37.500Z,18.40
2022-12-23T04:52:07.026Z,21.33
2022-12-23T04:54:46.228Z,23.27
2022-12-23T04:57:16.895Z,22.80
2022-12-23T04:59:46.240Z,20.67
2022-12-23T05:02:15.592Z,22.60
2022-12-23T05:04:44.959Z,20.95
2022-12-23T05:07:14.544Z,21.00
2022-12-23T05:09:45.714Z,21.45
2022-12-23T05:12:19.991Z,23.83
2022-12-23T05:14:55.575Z,24.40
2022-12-23T05:19:59.833Z,24.90
2022-12-23T05:22:40.141Z,24.33
2022-12-23T05:25:11.744Z,25.95
2022-12-23T05:27:42.205Z,27.23
2022-12-23T05:30:16.720Z,26.10
2022-12-23T05:32:45.969Z,29.42
2022-12-23T05:35:18.094Z,28.40
2022-12-23T05:37:47.236Z,30.20
2022-12-23T05:40:23.453Z,30.67
2022-12-23T05:42:58.967Z,26.98
2022-12-23T05:45:28.232Z,26.92
2022-12-23T05:47:57.465Z,28.08
2022-12-23T05:50:26.769Z,27.25
2022-12-23T05:52:57.387Z,27.48
2022-12-23T05:55:28.932Z,25.45
2022-12-23T05:58:03.320Z,29.48
2022-12-23T06:00:32.462Z,29.58
2022-12-23T06:03:02.182Z,24.92
2022-12-23T06:05:31.611Z,30.30
2022-12-23T06:08:00.712Z,30.85
2022-12-23T06:10:31.937Z,28.08
2022-12-23T06:13:01.105Z,28.63
2022-12-23T06:15:30.328Z,29.52
2022-12-23T06:17:59.780Z,25.40
2022-12-23T06:20:29.051Z,28.40
2022-12-23T06:22:58.214Z,28.92
2022-12-23T06:25:27.384Z,31.85
2022-12-23T06:27:59.044Z,26.70
2022-12-23T06:30:28.345Z,29.00
2022-12-23T06:32:57.491Z,28.83
2022-12-23T06:35:26.623Z,29.98
2022-12-23T06:37:56.168Z,31.58
2022-12-23T06:40:25.487Z,27.10
2022-12-23T06:42:54.581Z,22.75
2022-12-23T06:45:26.196Z,21.42
2022-12-23T06:47:56.943Z,24.40
2022-12-23T06:50:26.190Z,25.95
2022-12-23T06:52:55.241Z,26.23
2022-12-23T06:55:24.455Z,22.08
2022-12-23T06:57:59.637Z,25.10
2022-12-23T07:00:35.700Z,21.58
2022-12-23T07:03:10.134Z,21.10
2022-12-23T07:05:39.389Z,18.95
2022-12-23T07:08:13.625Z,20.60
2022-12-23T07:10:42.970Z,19.58
2022-12-23T07:13:12.600Z,21.15
2022-12-23T07:15:43.846Z,25.42
2022-12-23T07:18:13.055Z,22.30
2022-12-23T07:20:42.124Z,22.10
2022-12-23T07:23:11.312Z,24.42
2022-12-23T07:25:40.304Z,23.85
2022-12-23T07:28:10.029Z,26.25
2022-12-23T07:30:39.154Z,23.25
2022-12-23T07:33:10.519Z,24.38
2022-12-23T07:35:41.798Z,25.67
2022-12-23T07:38:12.138Z,24.23
2022-12-23T07:40:41.377Z,22.20
2022-12-23T07:43:12.016Z,21.52
2022-12-23T07:45:41.411Z,24.48
2022-12-23T07:48:17.589Z,22.02
2022-12-23T07:50:46.873Z,24.30
2022-12-23T07:53:16.826Z,24.35
2022-12-23T07:55:50.129Z,21.25
2022-12-23T07:58:22.141Z,23.17
2022-12-23T08:00:51.248Z,23.98
2022-12-23T08:03:22.483Z,22.95
2022-12-23T08:06:02.278Z,28.95
2022-12-23T08:08:32.053Z,28.92
2022-12-23T08:11:02.729Z,25.63
2022-12-23T08:13:33.303Z,24.85
2022-12-23T08:16:14.787Z,24.63
2022-12-23T08:18:50.884Z,24.30
2022-12-23T08:21:31.606Z,24.33
2022-12-23T08:24:00.642Z,25.25
2022-12-23T08:26:34.990Z,26.48
2022-12-23T08:29:04.767Z,23.42
2022-12-23T08:31:33.899Z,23.85
2022-12-23T08:34:10.242Z,20.38
2022-12-23T08:36:41.641Z,23.98
2022-12-23T08:39:13.153Z,21.58
2022-12-23T08:41:45.317Z,27.35
2022-12-23T08:44:20.534Z,23.50
2022-12-23T08:46:54.889Z,26.25
2022-12-23T08:49:26.107Z,25.80
2022-12-23T08:51:55.380Z,23.92
2022-12-23T08:54:29.597Z,25.75
2022-12-23T08:57:00.095Z,27.20
2022-12-23T08:59:35.953Z,25.60
2022-12-23T09:02:05.796Z,24.75
2022-12-23T09:04:38.412Z,28.80
2022-12-23T09:07:07.728Z,25.48
2022-12-23T09:09:36.986Z,28.30
2022-12-23T09:12:11.524Z,21.92
2022-12-23T09:14:40.779Z,27.35
2022-12-23T09:17:09.847Z,26.90
2022-12-23T09:19:41.104Z,29.63
2022-12-23T09:22:15.270Z,27.67
2022-12-23T09:24:44.418Z,24.80
2022-12-23T09:27:13.699Z,28.70
2022-12-23T09:29:43.272Z,27.33
2022-12-23T09:32:17.982Z,26.05
2022-12-23T09:34:49.080Z,30.33
2022-12-23T09:37:18.227Z,24.52
2022-12-23T09:39:47.347Z,25.13
2022-12-23T09:42:30.059Z,28.33
2022-12-23T09:45:14.349Z,25.02
2022-12-23T09:50:30.539Z,22.90
2022-12-23T09:53:03.997Z,24.95
2022-12-23T09:55:47.951Z,25.08
2022-12-23T09:58:29.208Z,26.52
2022-12-23T10:01:17.854Z,17.83
2022-12-23T10:04:26.642Z,26.58
2022-12-23T10:07:19.865Z,22.05
2022-12-23T10:09:53.108Z,23.67
2022-12-23T10:12:40.061Z,20.75
2022-12-23T10:15:28.545Z,21.40
2022-12-23T10:18:01.876Z,22.38
2022-12-23T10:20:44.620Z,22.70
2022-12-23T10:23:20.106Z,23.33
2022-12-23T10:25:53.447Z,20.90
2022-12-23T10:28:22.712Z,23.58
2022-12-23T10:34:06.140Z,21.42
2022-12-23T10:36:49.142Z,22.23
2022-12-23T10:39:30.360Z,21.00
2022-12-23T10:42:10.736Z,21.33
2022-12-23T10:44:56.219Z,20.33
2022-12-23T10:47:37.908Z,20.73
2022-12-23T10:50:28.823Z,18.15
2022-12-23T10:53:02.079Z,17.52
2022-12-23T10:55:37.851Z,19.27
2022-12-23T10:58:17.932Z,22.75
2022-12-23T11:00:52.515Z,15.98
2022-12-23T11:03:33.275Z,17.45
2022-12-23T11:06:03.928Z,19.73
2022-12-23T11:08:40.132Z,18.60
2022-12-23T11:11:13.458Z,17.65
2022-12-23T11:13:45.215Z,18.48
2022-12-23T11:16:21.364Z,14.75
2022-12-23T11:18:59.278Z,16.25
2022-12-23T11:21:29.361Z,16.75
2022-12-23T11:24:18.122Z,16.55
2022-12-23T11:26:51.288Z,14.77
2022-12-23T11:29:26.666Z,16.02
2022-12-23T11:32:14.747Z,15.10
2022-12-23T11:35:01.079Z,17.48
2022-12-23T11:37:38.205Z,15.43
2022-12-23T11:40:16.496Z,18.13
2022-12-23T11:43:15.352Z,15.77
2022-12-23T11:45:49.834Z,20.30
2022-12-23T11:48:30.699Z,15.98
2022-12-23T11:51:03.531Z,15.25
2022-12-23T11:53:33.203Z,15.30
2022-12-23T11:56:18.955Z,15.05
2022-12-23T11:59:00.555Z,13.65
2022-12-23T12:01:30.274Z,16.70
2022-12-23T12:04:02.869Z,13.00
2022-12-23T12:09:15.665Z,13.88
2022-12-23T12:11:55.326Z,11.65
2022-12-23T12:14:47.168Z,14.50
2022-12-23T12:17:22.703Z,20.95
2022-12-23T12:20:04.766Z,16.63
2022-12-23T12:22:42.364Z,14.20
2022-12-23T12:25:19.824Z,15.48
2022-12-23T12:28:07.105Z,16.05
2022-12-23T12:30:54.323Z,14.88
2022-12-23T12:33:29.659Z,14.23
2022-12-23T12:36:09.043Z,12.77
2022-12-23T12:39:00.639Z,12.73
2022-12-23T12:41:36.082Z,13.95
2022-12-23T12:44:15.512Z,16.08
2022-12-23T12:46:52.644Z,16.02
2022-12-23T12:55:08.957Z,13.27
2022-12-23T13:00:45.398Z,11.90
2022-12-23T13:03:47.170Z,13.77
2022-12-23T13:06:28.960Z,14.55
2022-12-23T13:09:09.301Z,10.85
2022-12-23T13:11:50.225Z,12.27
2022-12-23T13:14:43.277Z,12.60
2022-12-23T13:17:34.459Z,13.80
2022-12-23T13:20:27.435Z,13.27
2022-12-23T13:23:34.268Z,12.60
2022-12-23T13:26:16.694Z,10.45
2022-12-23T13:29:02.245Z,10.27
2022-12-23T13:31:55.968Z,9.18
2022-12-23T13:34:48.516Z,8.65
2022-12-23T13:37:39.808Z,7.88
2022-12-23T13:40:30.977Z,8.67
2022-12-23T13:43:06.519Z,8.10
2022-12-23T13:45:39.916Z,10.43
2022-12-23T13:48:29.350Z,9.15
2022-12-23T13:51:05.114Z,10.65
2022-12-23T13:54:05.113Z,8.48
2022-12-23T13:57:05.823Z,8.85
2022-12-23T13:59:42.026Z,8.23
2022-12-23T14:05:40.508Z,8.73
2022-12-23T14:08:33.355Z,6.50
2022-12-23T14:11:10.198Z,6.65
2022-12-23T14:13:51.318Z,6.55
2022-12-23T14:16:47.364Z,6.90
2022-12-23T14:19:45.232Z,6.13
2022-12-23T14:22:40.760Z,6.78
2022-12-23T14:25:48.301Z,4.97
2022-12-23T14:28:56.966Z,6.78
2022-12-23T14:31:35.359Z,9.10
2022-12-23T14:34:41.240Z,6.38
2022-12-23T14:37:38.406Z,6.60
2022-12-23T14:42:56.799Z,7.65
2022-12-23T14:45:50.505Z,9.93
2022-12-23T14:49:15.909Z,9.30
2022-12-23T14:51:43.713Z,15.98
2022-12-23T14:54:20.535Z,12.52
2022-12-23T14:57:21.478Z,8.32
2022-12-23T15:00:18.428Z,9.55
2022-12-23T15:03:10.089Z,8.05
2022-12-23T15:05:53.796Z,9.38
2022-12-23T15:08:32.650Z,7.90
2022-12-23T15:11:20.405Z,7.65
2022-12-23T15:13:56.843Z,7.23
2022-12-23T15:16:33.357Z,7.78
2022-12-23T15:19:04.696Z,6.18
2022-12-23T15:21:39.125Z,7.35
2022-12-23T15:24:16.141Z,10.70
2022-12-23T15:27:25.097Z,7.18
2022-12-23T15:29:46.944Z,7.00
2022-12-23T15:34:51.535Z,7.05
2022-12-23T15:37:44.162Z,6.03
2022-12-23T15:40:26.536Z,8.85
2022-12-23T15:43:19.117Z,10.52
2022-12-23T15:46:06.626Z,11.10
2022-12-23T15:48:42.595Z,10.48
2022-12-23T15:51:30.582Z,7.78
2022-12-23T15:54:08.999Z,9.00
2022-12-23T15:56:50.797Z,8.65
2022-12-23T15:59:31.640Z,9.63
2022-12-23T16:02:49.575Z,9.02
2022-12-23T16:07:59.284Z,9.68
2022-12-23T16:13:13.447Z,12.63
2022-12-23T16:15:57.685Z,12.88
2022-12-23T16:18:31.290Z,14.10
2022-12-23T16:21:04.181Z,12.45
2022-12-23T16:23:36.938Z,14.77
2022-12-23T16:26:13.441Z,13.30
2022-12-23T16:28:45.098Z,13.07
2022-12-23T16:31:24.654Z,13.25
2022-12-23T16:33:56.843Z,13.55
2022-12-23T16:36:35.718Z,15.98
2022-12-23T16:39:17.985Z,18.98
2022-12-23T16:44:15.914Z,19.48
2022-12-23T16:47:08.832Z,18.05
2022-12-23T16:49:39.224Z,19.83
2022-12-23T16:52:14.279Z,20.95
2022-12-23T16:54:43.920Z,20.50
2022-12-23T16:57:26.035Z,23.25
2022-12-23T17:00:00.159Z,22.00
2022-12-23T17:02:34.170Z,23.88
2022-12-23T17:05:16.471Z,23.15
2022-12-23T17:07:57.884Z,22.17
2022-12-23T17:10:27.153Z,24.25
2022-12-23T17:12:56.332Z,22.80
2022-12-23T17:15:43.656Z,24.45
2022-12-23T17:18:20.171Z,22.15
2022-12-23T17:21:03.906Z,26.75
2022-12-23T17:23:34.496Z,27.20
2022-12-23T17:26:16.606Z,27.20
2022-12-23T17:28:46.242Z,25.33
2022-12-23T17:31:26.995Z,28.13
2022-12-23T17:34:14.050Z,24.83
2022-12-23T17:36:56.333Z,23.08
2022-12-23T17:39:38.542Z,24.95
2022-12-23T17:42:17.767Z,23.70
2022-12-23T17:44:51.131Z,23.05
2022-12-23T17:47:22.091Z,23.58
2022-12-23T17:49:53.404Z,25.20
2022-12-23T17:52:24.035Z,22.13
2022-12-23T17:54:53.542Z,25.05
2022-12-23T17:57:37.448Z,14.65
2022-12-23T18:00:07.723Z,21.30
2022-12-23T18:02:47.444Z,22.95
2022-12-23T18:05:25.453Z,20.80
2022-12-23T18:07:55.795Z,23.20
2022-12-23T18:10:27.700Z,23.23
2022-12-23T18:15:28.334Z,19.02
2022-12-23T18:18:20.330Z,12.27
2022-12-23T18:21:10.836Z,20.13
2022-12-23T18:23:45.085Z,19.73
2022-12-23T18:26:16.510Z,18.00
2022-12-23T18:28:46.129Z,17.88
2022-12-23T18:31:17.921Z,29.90
2022-12-23T18:36:24.681Z,18.35
2022-12-23T18:39:08.523Z,17.98
2022-12-23T18:41:57.192Z,16.35
2022-12-23T18:47:21.758Z,15.00
2022-12-23T18:49:56.079Z,14.80
2022-12-23T18:52:27.138Z,15.13
2022-12-23T18:55:14.362Z,17.27
2022-12-23T18:57:56.518Z,16.52
2022-12-23T19:00:28.677Z,14.68
2022-12-23T19:03:11.707Z,13.88
2022-12-23T19:05:53.918Z,14.63
2022-12-23T19:08:27.973Z,12.80
2022-12-23T19:11:02.918Z,12.68
2022-12-23T19:13:32.820Z,12.95
2022-12-23T19:16:02.540Z,13.52
2022-12-23T19:18:31.883Z,12.40
2022-12-23T19:21:18.562Z,14.57
2022-12-23T19:23:49.892Z,16.73
2022-12-23T19:26:19.207Z,14.52
2022-12-23T19:28:49.535Z,13.18
2022-12-23T19:31:28.014Z,13.05
2022-12-23T19:33:57.514Z,12.82
2022-12-23T19:36:26.721Z,13.32
2022-12-23T19:38:58.567Z,14.02
2022-12-23T19:41:40.855Z,14.02
2022-12-23T19:44:15.355Z,14.07
2022-12-23T19:46:44.683Z,14.15
2022-12-23T19:49:19.454Z,11.65
2022-12-23T19:52:03.028Z,12.52
2022-12-23T19:54:34.634Z,14.38
2022-12-23T19:57:16.870Z,14.43
2022-12-23T19:59:46.043Z,13.98
2022-12-23T20:02:33.827Z,12.32
2022-12-23T20:05:15.939Z,14.05
2022-12-23T20:10:15.967Z,12.07
2022-12-23T20:12:45.109Z,11.10
2022-12-23T20:15:14.306Z,12.73
2022-12-23T20:17:56.413Z,11.55
2022-12-23T20:23:08.465Z,13.63
2022-12-23T20:25:39.538Z,14.52
2022-12-23T20:28:08.768Z,12.05
2022-12-23T20:30:50.862Z,13.50
2022-12-23T20:33:30.961Z,12.90
2022-12-23T20:36:00.171Z,12.13
2022-12-23T20:38:29.607Z,14.48
2022-12-23T20:41:07.460Z,13.77
2022-12-23T20:43:36.609Z,12.95
2022-12-23T20:46:07.399Z,13.50
2022-12-23T20:48:50.018Z,11.38
2022-12-23T20:51:23.300Z,10.90
2022-12-23T20:54:06.074Z,11.35
2022-12-23T20:56:37.291Z,9.95
2022-12-23T20:59:06.428Z,11.07
2022-12-23T21:04:29.735Z,10.55
2022-12-23T21:06:58.901Z,11.70
2022-12-23T21:09:34.473Z,11.68
2022-12-23T21:12:19.407Z,10.68
2022-12-23T21:14:55.429Z,10.65
2022-12-23T21:17:25.560Z,12.23
2022-12-23T21:19:54.716Z,14.88
2022-12-23T21:22:28.881Z,11.35
2022-12-23T21:25:16.057Z,11.32
2022-12-23T21:27:47.237Z,12.77
2022-12-23T21:30:16.920Z,9.23
2022-12-23T21:32:46.032Z,11.13
2022-12-23T21:35:15.762Z,9.32
2022-12-23T21:37:57.830Z,10.50
2022-12-23T21:40:27.202Z,9.63
2022-12-23T21:42:59.957Z,11.00
2022-12-23T21:45:36.009Z,10.77
2022-12-23T21:48:05.374Z,10.38
2022-12-23T21:50:35.142Z,13.07
2022-12-23T21:53:22.391Z,20.40
2022-12-23T21:56:04.572Z,11.60
2022-12-23T21:58:49.957Z,9.32
2022-12-23T22:01:21.655Z,7.97
2022-12-23T22:03:52.861Z,10.38
2022-12-23T22:06:27.581Z,10.40
2022-12-23T22:09:02.178Z,8.55
2022-12-23T22:11:33.009Z,9.20
2022-12-23T22:14:13.182Z,12.13
2022-12-23T22:16:55.337Z,11.80
2022-12-23T22:19:42.657Z,12.95
2022-12-23T22:22:24.742Z,12.45
2022-12-23T22:24:54.063Z,11.23
2022-12-23T22:27:36.072Z,9.23
2022-12-23T22:32:47.582Z,8.05
2022-12-23T22:35:16.907Z,11.05
2022-12-23T22:37:46.373Z,10.60
2022-12-23T22:40:33.711Z,6.18
2022-12-23T22:43:02.988Z,12.35
2022-12-23T22:45:34.595Z,10.50
2022-12-23T22:48:10.293Z,7.70
2022-12-23T22:50:40.129Z,9.40
2022-12-23T22:53:10.297Z,10.75
2022-12-23T22:55:39.452Z,10.18
2022-12-23T22:58:08.663Z,8.75
2022-12-23T23:00:45.981Z,9.10
2022-12-23T23:03:15.324Z,10.07
2022-12-23T23:05:44.756Z,10.18
2022-12-23T23:08:31.880Z,12.07
2022-12-23T23:11:16.287Z,11.98
2022-12-23T23:13:45.511Z,9.38
2022-12-23T23:16:16.987Z,9.15
2022-12-23T23:18:46.359Z,7.65
2022-12-23T23:21:21.405Z,10.77
2022-12-23T23:23:50.858Z,10.30
2022-12-23T23:26:20.678Z,9.85
2022-12-23T23:31:42.086Z,11.20
2022-12-23T23:34:30.495Z,12.90
2022-12-23T23:37:12.854Z,10.60
2022-12-23T23:40:01.779Z,11.45
2022-12-23T23:42:32.589Z,13.63
2022-12-23T23:45:13.887Z,11.63
2022-12-23T23:47:58.093Z,12.65
2022-12-23T23:50:27.328Z,17.23
2022-12-23T23:52:56.511Z,14.07
2022-12-23T23:55:50.007Z,17.77
2022-12-23T23:58:34.306Z,15.93
